Date,TemperatureHighF,TemperatureAvgF,TemperatureLowF,DewpointHighF,DewpointAvgF,DewpointLowF,HumidityHigh,HumidityAvg,HumidityLow,PressureMaxIn,PressureMinIn,WindSpeedMaxMPH,WindSpeedAvgMPH,GustSpeedMaxMPH,PrecipitationSumIn
2013-7-1,67.0,64.8,60.0,64.0,62.1,58.0,97,91,84,30.11,29.97,4,0,10,0.28
2013-7-2,74.0,65.5,60.0,68.0,62.4,58.0,97,90,79,30.15,30.07,2,0,6,0.21
2013-7-3,85.0,69.5,65.0,72.0,66.9,64.0,98,92,66,30.21,30.14,3,0,9,0.42
2013-7-4,87.0,75.6,69.0,73.0,69.9,67.0,98,84,52,30.22,30.14,6,1,13,0.43
2013-7-5,86.0,76.2,71.0,73.0,70.4,68.0,95,83,62,30.18,30.09,5,1,16,0.07
2013-7-6,88.0,77.2,70.0,69.0,66.6,62.0,87,71,43,30.19,30.06,5,2,10,0.01
2013-7-7,85.0,77.3,70.0,72.0,68.6,65.0,97,76,54,30.10,29.97,8,3,19,0.13
2013-7-8,85.0,74.1,71.0,73.0,66.9,-99.9,91,81,59,30.09,30.01,6,2,14,0.01
2013-7-9,85.0,75.1,70.0,73.0,70.0,67.0,96,85,61,30.09,29.94,5,0,16,0.21
2013-7-10,87.0,76.6,71.0,73.0,67.4,-99.9,97,77,60,29.95,29.75,10,4,25,0.20
2013-7-11,77.0,70.7,64.0,66.0,60.6,57.0,86,71,57,30.07,29.85,8,2,19,0.00
2013-7-12,75.0,66.0,63.0,67.0,62.9,60.0,95,89,72,30.20,30.07,0,0,3,0.00
2013-7-17,88.0,85.0,83.0,75.0,73.6,72.0,76,69,60,30.13,30.11,6,4,17,0.00
2013-7-18,89.0,82.5,76.0,77.0,74.0,71.0,90,76,61,30.14,29.97,6,2,16,0.30
2013-7-19,93.0,83.6,71.0,75.0,70.6,66.0,87,66,46,29.98,29.74,14,6,35,0.04
2013-7-20,82.0,73.6,68.0,69.0,62.7,-99.9,96,73,40,29.92,29.74,11,2,28,0.33
2013-7-21,74.0,70.0,66.0,63.0,59.5,56.0,82,70,59,30.06,29.93,2,0,8,0.01
2013-7-22,80.0,69.9,61.0,66.0,61.6,57.0,93,76,57,30.05,29.84,2,0,7,0.31
2013-7-23,86.0,74.5,67.0,70.0,66.3,59.0,97,78,46,29.84,29.65,11,2,21,0.47
2013-7-24,69.0,63.4,58.0,59.0,51.8,48.0,79,67,51,30.09,29.73,8,2,18,0.01
2013-7-25,73.0,63.8,52.0,56.0,52.0,49.0,92,67,45,30.19,30.10,2,0,8,0.00
2013-7-26,75.0,66.7,56.0,59.0,53.2,49.0,91,64,42,30.18,30.06,3,0,11,0.00
2013-7-27,80.0,70.2,59.0,67.0,60.9,54.0,95,74,52,30.07,29.87,3,0,14,0.08
2013-7-28,74.0,67.8,63.0,67.0,62.4,57.0,96,83,67,30.03,29.85,4,0,10,0.11
2013-7-29,73.0,64.9,58.0,58.0,55.1,51.0,89,72,48,30.17,30.03,9,3,18,0.02
2013-7-30,76.0,67.5,59.0,61.0,57.4,55.0,87,71,52,30.25,30.18,7,2,13,0.00
2013-7-31,81.0,70.3,60.0,67.0,60.2,56.0,92,72,45,30.21,29.98,3,0,10,0.00